Time;durP1;ratioP1;P1;durP2;ratioP2;P2;SDS_P1;SDS_P2;PMS_P1;PMS_P2;Temp;Humidity;BMP_temperature;BMP_pressure;BME280_temperature;BME280_humidity;BME280_pressure;Samples;Min_cycle;Max_cycle;Signal;HPM_P1;HPM_P2
2023/07/18 00:01:31;;;;;;;12.77;5.55;;;;;;;13.35;100.00;101796.84;5008603;28;20050;-71
2023/07/18 00:03:58;;;;;;;15.80;5.85;;;;;;;13.32;100.00;101794.88;4999108;28;20473;-70
2023/07/18 00:06:25;;;;;;;15.63;5.57;;;;;;;13.33;100.00;101802.03;5005933;28;20061;-72
2023/07/18 00:08:51;;;;;;;13.15;5.35;;;;;;;13.29;100.00;101794.88;5001899;28;20506;-68
2023/07/18 00:11:20;;;;;;;13.40;5.85;;;;;;;13.26;100.00;101799.28;5006310;28;20108;-70
2023/07/18 00:13:47;;;;;;;16.48;5.80;;;;;;;13.28;100.00;101804.47;5005415;28;20053;-68
2023/07/18 00:16:13;;;;;;;17.27;5.65;;;;;;;13.24;100.00;101801.72;5006014;28;20141;-72
2023/07/18 00:18:40;;;;;;;13.27;5.75;;;;;;;13.26;100.00;101798.53;5008408;28;20107;-72
2023/07/18 00:21:07;;;;;;;16.05;5.65;;;;;;;13.26;100.00;101795.72;4986837;28;20054;-70
2023/07/18 00:23:34;;;;;;;15.77;6.32;;;;;;;13.26;100.00;101792.94;5007525;28;20053;-71
2023/07/18 00:26:00;;;;;;;14.43;5.75;;;;;;;13.23;100.00;101785.38;5001944;28;20085;-71
2023/07/18 00:28:28;;;;;;;14.18;5.65;;;;;;;13.20;100.00;101788.97;4993443;28;20405;-72
2023/07/18 00:30:55;;;;;;;16.67;6.53;;;;;;;13.20;100.00;101786.97;4995080;28;20592;-72
2023/07/18 00:33:22;;;;;;;18.67;5.70;;;;;;;13.24;100.00;101792.53;5006490;28;20045;-70
2023/07/18 00:35:49;;;;;;;13.63;5.28;;;;;;;13.24;100.00;101795.31;5007377;28;20058;-71
2023/07/18 00:38:15;;;;;;;14.23;5.40;;;;;;;13.21;100.00;101787.78;4989072;28;20510;-72
2023/07/18 00:40:42;;;;;;;17.85;5.57;;;;;;;13.16;100.00;101788.22;5007473;28;20567;-71
2023/07/18 00:43:14;;;;;;;12.38;4.90;;;;;;;13.15;100.00;101790.22;5005154;28;20054;-72
2023/07/18 00:45:42;;;;;;;12.93;5.40;;;;;;;13.17;100.00;101792.59;5003991;28;20115;-72
2023/07/18 00:48:09;;;;;;;12.35;5.40;;;;;;;13.13;100.00;101795.41;4996740;28;20112;-71
2023/07/18 00:50:36;;;;;;;13.18;5.28;;;;;;;13.11;100.00;101800.59;5006217;28;20089;-71
2023/07/18 00:53:03;;;;;;;11.57;5.18;;;;;;;13.07;100.00;101796.25;5004439;28;20057;-72
2023/07/18 00:55:31;;;;;;;12.50;6.03;;;;;;;13.08;100.00;101795.03;5006524;28;20049;-73
2023/07/18 00:57:59;;;;;;;13.40;5.38;;;;;;;13.08;100.00;101795.03;5002939;28;20046;-72
2023/07/18 01:00:26;;;;;;;14.32;5.43;;;;;;;13.04;100.00;101792.28;5004992;28;20478;-71
2023/07/18 01:02:53;;;;;;;12.13;4.82;;;;;;;13.00;100.00;101793.50;5008183;28;20056;-72
2023/07/18 01:05:20;;;;;;;14.10;5.05;;;;;;;12.96;100.00;101792.75;5005798;28;20060;-72
2023/07/18 01:07:48;;;;;;;13.48;4.78;;;;;;;12.90;100.00;101797.97;5003260;28;20060;-70
2023/07/18 01:10:26;;;;;;;15.02;5.20;;;;;;;12.83;100.00;101795.19;5004202;28;20556;-72
2023/07/18 01:12:56;;;;;;;16.35;5.43;;;;;;;12.81;100.00;101800.38;4996669;28;20748;-72
2023/07/18 01:15:24;;;;;;;13.23;5.53;;;;;;;12.81;100.00;101803.19;4989289;28;20084;-72
2023/07/18 01:17:50;;;;;;;13.95;5.20;;;;;;;12.83;100.00;101799.97;5002951;28;20061;-71
2023/07/18 01:20:19;;;;;;;12.50;4.88;;;;;;;12.81;100.00;101799.59;5006124;28;20080;-71
2023/07/18 01:22:51;;;;;;;10.98;5.03;;;;;;;12.77;100.00;101793.22;5004810;28;20103;-71
2023/07/18 01:25:19;;;;;;;11.52;5.20;;;;;;;12.80;100.00;101801.59;5007344;28;20046;-71
2023/07/18 01:27:46;;;;;;;12.48;5.22;;;;;;;12.81;100.00;101799.59;4998139;28;20053;-72
2023/07/18 01:30:15;;;;;;;12.73;4.93;;;;;;;12.77;100.00;101790.44;5005695;28;20038;-71
2023/07/18 01:32:42;;;;;;;12.35;4.93;;;;;;;12.76;100.00;101792.44;5008541;28;20429;-71
2023/07/18 01:35:09;;;;;;;12.43;4.95;;;;;;;12.75;100.00;101796.44;4988820;28;20589;-71
2023/07/18 01:37:37;;;;;;;12.13;5.43;;;;;;;12.78;100.00;101792.03;4985995;28;20056;-71
2023/07/18 01:40:06;;;;;;;16.17;5.68;;;;;;;12.76;100.00;101788.84;4995127;28;20542;-70
2023/07/18 01:42:32;;;;;;;13.15;4.53;;;;;;;12.74;100.00;101786.47;5004099;28;20096;-71
2023/07/18 01:44:59;;;;;;;17.33;5.60;;;;;;;12.72;100.00;101783.28;4998359;28;20089;-71
2023/07/18 01:47:26;;;;;;;14.52;4.97;;;;;;;12.67;100.00;101778.16;5005535;28;20140;-72
2023/07/18 01:49:52;;;;;;;14.07;5.63;;;;;;;12.69;100.00;101786.09;5005082;28;20060;-72
2023/07/18 01:52:19;;;;;;;15.02;5.45;;;;;;;12.64;100.00;101783.72;5005012;28;20049;-71
2023/07/18 01:54:45;;;;;;;13.40;5.35;;;;;;;12.61;100.00;101779.75;5002541;28;20104;-72
2023/07/18 01:57:12;;;;;;;14.02;5.82;;;;;;;12.61;100.00;101784.53;5003917;28;20125;-71
2023/07/18 01:59:38;;;;;;;13.48;5.05;;;;;;;12.57;100.00;101782.56;4989238;28;20050;-69
2023/07/18 02:02:06;;;;;;;11.68;4.72;;;;;;;12.56;100.00;101780.19;5007065;28;20062;-72
2023/07/18 02:04:33;;;;;;;14.73;5.22;;;;;;;12.57;100.00;101779.75;4989800;28;20081;-72
2023/07/18 02:07:00;;;;;;;12.68;4.88;;;;;;;12.56;100.00;101782.19;5006646;28;20050;-72
2023/07/18 02:09:27;;;;;;;17.52;5.10;;;;;;;12.55;100.00;101780.59;5010696;28;20089;-72
2023/07/18 02:11:54;;;;;;;9.73;4.40;;;;;;;12.55;100.00;101777.81;5000737;28;20081;-71
2023/07/18 02:14:21;;;;;;;16.05;5.15;;;;;;;12.55;100.00;101777.81;5008323;28;20050;-71
2023/07/18 02:16:47;;;;;;;11.57;4.78;;;;;;;12.55;100.00;101784.16;5006168;28;20096;-69
2023/07/18 02:19:14;;;;;;;12.32;4.82;;;;;;;12.59;100.00;101770.22;5005725;28;20061;-72
2023/07/18 02:21:41;;;;;;;10.25;4.30;;;;;;;12.59;100.00;101770.22;5008547;28;20053;-72
2023/07/18 02:24:07;;;;;;;12.25;5.15;;;;;;;12.56;100.00;101766.25;5008210;28;20050;-72
2023/07/18 02:26:34;;;;;;;11.65;4.65;;;;;;;12.50;100.00;101763.06;5007138;28;20084;-70
2023/07/18 02:29:00;;;;;;;13.20;4.57;;;;;;;12.47;100.00;101771.47;5002004;28;20050;-72
2023/07/18 02:31:27;;;;;;;10.88;4.70;;;;;;;12.45;100.00;101769.06;5006277;28;20112;-72
2023/07/18 02:33:54;;;;;;;12.85;4.63;;;;;;;12.46;100.00;101772.66;4983876;28;20511;-71
2023/07/18 02:36:21;;;;;;;10.27;4.63;;;;;;;12.44;100.00;101773.06;4982528;28;20089;-72
2023/07/18 02:38:48;;;;;;;12.10;4.18;;;;;;;12.46;100.00;101765.06;4990546;28;20053;-69
2023/07/18 02:41:14;;;;;;;11.85;4.38;;;;;;;12.48;100.00;101761.88;4988860;28;20164;-71
2023/07/18 02:43:41;;;;;;;11.07;5.47;;;;;;;12.49;100.00;101764.28;5002488;28;20054;-71
2023/07/18 02:46:08;;;;;;;14.07;4.80;;;;;;;12.46;100.00;101756.72;4990787;28;20077;-69
2023/07/18 02:48:35;;;;;;;14.73;4.72;;;;;;;12.40;100.00;101754.75;5006302;28;20085;-72
2023/07/18 02:51:01;;;;;;;13.52;5.35;;;;;;;12.36;100.00;101751.19;5006089;28;20097;-72
2023/07/18 02:53:28;;;;;;;11.80;4.65;;;;;;;12.31;100.00;101746.00;5007169;28;20050;-70
2023/07/18 02:55:54;;;;;;;11.98;5.40;;;;;;;12.33;100.00;101735.25;5008517;28;20453;-72
2023/07/18 02:58:22;;;;;;;11.90;5.13;;;;;;;12.30;100.00;101736.81;4993478;28;20481;-71
2023/07/18 03:00:51;;;;;;;14.77;5.15;;;;;;;12.30;100.00;101736.81;5011745;28;20049;-70
2023/07/18 03:03:18;;;;;;;12.13;4.82;;;;;;;12.28;100.00;101736.44;4990666;28;20050;-69
2023/07/18 03:05:44;;;;;;;13.35;4.93;;;;;;;12.24;100.00;101738.47;5011334;28;20054;-71
2023/07/18 03:08:11;;;;;;;14.90;5.28;;;;;;;12.26;100.00;101743.63;5004956;28;20610;-72
2023/07/18 03:10:38;;;;;;;11.05;4.72;;;;;;;12.23;100.00;101736.09;5010324;28;20084;-72
2023/07/18 03:13:05;;;;;;;16.48;4.70;;;;;;;12.24;100.00;101752.41;5011268;28;20053;-71
2023/07/18 03:15:31;;;;;;;15.45;5.00;;;;;;;12.27;100.00;101746.03;5011304;28;20103;-71
2023/07/18 03:17:58;;;;;;;10.60;4.43;;;;;;;12.27;100.00;101746.03;5009973;28;20056;-71
2023/07/18 03:20:27;;;;;;;14.98;5.85;;;;;;;12.23;100.00;101736.09;5010242;28;20060;-71
2023/07/18 03:22:53;;;;;;;12.50;5.07;;;;;;;12.24;100.00;101737.66;4988304;28;20131;-68
2023/07/18 03:25:20;;;;;;;10.15;3.50;;;;;;;12.27;100.00;101748.00;5011093;28;20057;-72
2023/07/18 03:27:47;;;;;;;12.15;5.15;;;;;;;12.27;100.00;101736.84;4993473;28;20057;-71
2023/07/18 03:30:14;;;;;;;17.25;5.00;;;;;;;12.23;100.00;101742.44;4996281;28;20050;-71
2023/07/18 03:32:40;;;;;;;14.40;4.78;;;;;;;12.24;100.00;101749.63;5011050;28;20093;-72
2023/07/18 03:35:09;;;;;;;11.95;4.75;;;;;;;12.21;100.00;101756.00;5010678;28;20049;-72
2023/07/18 03:37:35;;;;;;;12.55;4.70;;;;;;;12.19;100.00;101750.03;5004360;28;20063;-71
2023/07/18 03:40:05;;;;;;;15.10;5.03;;;;;;;12.17;100.00;101741.28;5009448;28;20065;-70
2023/07/18 03:42:34;;;;;;;12.52;4.55;;;;;;;12.17;100.00;101746.06;5003060;28;20123;-71
2023/07/18 03:45:01;;;;;;;13.75;4.90;;;;;;;12.13;100.00;101740.47;5010668;28;20128;-71
2023/07/18 03:47:28;;;;;;;13.57;4.78;;;;;;;12.16;100.00;101744.47;5010568;28;20065;-72
2023/07/18 03:49:56;;;;;;;10.90;4.70;;;;;;;12.14;100.00;101742.09;5006454;28;20081;-70
2023/07/18 03:52:23;;;;;;;14.10;4.93;;;;;;;12.11;100.00;101740.09;5009155;28;20086;-72
2023/07/18 03:54:49;;;;;;;13.85;4.47;;;;;;;12.12;100.00;101750.03;5004743;28;20141;-72
2023/07/18 03:57:16;;;;;;;13.43;4.50;;;;;;;12.14;100.00;101742.09;5007785;28;20073;-71
2023/07/18 03:59:42;;;;;;;15.57;5.30;;;;;;;12.16;100.00;101741.69;5010099;28;20077;-71
2023/07/18 04:02:09;;;;;;;13.93;5.22;;;;;;;12.20;100.00;101736.88;5010243;28;20054;-72
2023/07/18 04:04:36;;;;;;;13.38;5.32;;;;;;;12.19;100.00;101733.28;4993228;28;20112;-71
2023/07/18 04:07:03;;;;;;;11.88;4.80;;;;;;;12.19;100.00;101746.47;5008214;28;20124;-70
2023/07/18 04:09:30;;;;;;;12.30;4.68;;;;;;;12.19;100.00;101744.44;5009316;28;20168;-71
2023/07/18 04:11:57;;;;;;;13.15;5.10;;;;;;;12.22;100.00;101740.84;5005810;28;20053;-72
2023/07/18 04:14:23;;;;;;;14.73;6.38;;;;;;;12.23;100.00;101747.22;5009805;28;20089;-72
2023/07/18 04:16:51;;;;;;;14.57;5.28;;;;;;;12.21;100.00;101739.28;4991982;28;20177;-72
2023/07/18 04:19:18;;;;;;;12.23;5.00;;;;;;;12.23;100.00;101736.84;4991619;28;20053;-71
2023/07/18 04:21:44;;;;;;;17.50;5.72;;;;;;;12.21;100.00;101739.28;5009863;28;20133;-70
2023/07/18 04:24:11;;;;;;;13.32;5.60;;;;;;;12.19;100.00;101733.28;4988971;28;20092;-71
2023/07/18 04:26:37;;;;;;;15.35;5.20;;;;;;;12.22;100.00;101729.69;5008392;28;20053;-70
2023/07/18 04:29:05;;;;;;;15.57;5.10;;;;;;;12.24;100.00;101726.50;5005950;28;20042;-71
2023/07/18 04:31:31;;;;;;;14.20;5.88;;;;;;;12.23;100.00;101725.69;5009665;28;20538;-72
2023/07/18 04:33:59;;;;;;;13.48;5.35;;;;;;;12.23;100.00;101719.34;5009893;28;20050;-72
2023/07/18 04:36:25;;;;;;;13.07;5.10;;;;;;;12.23;100.00;101728.50;4991610;28;20729;-71
2023/07/18 04:38:52;;;;;;;12.52;4.90;;;;;;;12.25;100.00;101726.09;5007215;28;20076;-72
2023/07/18 04:41:18;;;;;;;16.13;5.75;;;;;;;12.28;100.00;101735.66;5009168;28;20050;-72
2023/07/18 04:43:46;;;;;;;19.02;5.45;;;;;;;12.31;100.00;101735.66;5009066;28;20049;-70
2023/07/18 04:46:12;;;;;;;13.88;6.32;;;;;;;12.34;100.00;101729.25;5009448;28;20593;-71
2023/07/18 04:48:40;;;;;;;14.65;6.13;;;;;;;12.42;100.00;101735.59;5009306;28;20100;-71
2023/07/18 04:51:06;;;;;;;14.20;5.50;;;;;;;12.47;100.00;101735.19;5009309;28;20052;-71
2023/07/18 04:53:33;;;;;;;14.27;5.70;;;;;;;12.53;100.00;101728.00;4986385;28;20054;-71
2023/07/18 04:56:00;;;;;;;16.00;5.90;;;;;;;12.60;100.00;101732.75;5009289;28;20112;-71
2023/07/18 04:58:27;;;;;;;15.60;5.43;;;;;;;12.65;100.00;101735.91;5008258;28;20084;-72
2023/07/18 05:00:55;;;;;;;15.60;5.35;;;;;;;12.74;100.00;101738.22;5008160;28;20096;-70
2023/07/18 05:03:22;;;;;;;15.07;5.53;;;;;;;12.81;100.00;101727.03;5000505;28;20165;-69
2023/07/18 05:05:49;;;;;;;13.05;5.10;;;;;;;12.88;100.00;101725.00;5008633;28;20053;-71
2023/07/18 05:08:17;;;;;;;15.70;6.15;;;;;;;12.95;100.00;101715.75;5008648;28;20053;-71
2023/07/18 05:10:43;;;;;;;15.63;5.35;;;;;;;13.03;100.00;101720.09;4987120;28;20042;-71
2023/07/18 05:13:10;;;;;;;16.60;5.93;;;;;;;13.12;100.00;101720.41;5008349;28;20678;-71
2023/07/18 05:15:37;;;;;;;13.68;5.28;;;;;;;13.14;100.00;101718.81;5009154;28;20092;-71
2023/07/18 05:18:04;;;;;;;14.32;5.78;;;;;;;13.23;100.00;101712.75;4989413;28;20050;-70
2023/07/18 05:20:31;;;;;;;16.02;6.47;;;;;;;13.31;100.00;101717.06;5008431;28;20058;-70
2023/07/18 05:22:58;;;;;;;16.70;5.53;;;;;;;13.35;100.00;101709.44;5009250;28;20057;-70
2023/07/18 05:25:25;;;;;;;14.15;4.97;;;;;;;13.46;100.00;101708.19;5006257;28;20049;-71
2023/07/18 05:27:51;;;;;;;14.95;5.03;;;;;;;13.53;100.00;101715.69;5001756;28;20050;-71
2023/07/18 05:30:19;;;;;;;13.77;5.35;;;;;;;13.62;100.00;101718.81;5008726;28;20088;-71
2023/07/18 05:32:46;;;;;;;12.95;4.82;;;;;;;13.71;100.00;101719.13;5004227;28;20045;-70
2023/07/18 05:35:16;;;;;;;17.20;5.50;;;;;;;13.74;100.00;101715.50;5008429;28;20049;-69
2023/07/18 05:37:43;;;;;;;16.20;5.00;;;;;;;13.83;100.00;101712.97;5008576;28;20099;-71
2023/07/18 05:40:11;;;;;;;11.70;4.45;;;;;;;13.90;100.00;101712.91;5005693;28;20050;-71
2023/07/18 05:42:39;;;;;;;17.30;7.07;;;;;;;13.98;100.00;101720.03;4987815;28;20128;-71
2023/07/18 05:45:08;;;;;;;11.38;4.50;;;;;;;13.97;100.00;101710.84;5008383;28;20058;-70
2023/07/18 05:47:35;;;;;;;13.70;4.43;;;;;;;14.09;100.00;101712.28;5008652;28;20482;-71
2023/07/18 05:50:04;;;;;;;14.13;5.20;;;;;;;14.17;100.00;101708.19;5008311;28;20096;-71
2023/07/18 05:52:31;;;;;;;17.08;4.95;;;;;;;14.23;100.00;101712.91;5002711;28;20115;-71
2023/07/18 05:54:58;;;;;;;15.02;5.10;;;;;;;14.33;100.00;101713.97;5005643;28;20054;-71
2023/07/18 05:57:25;;;;;;;13.00;3.58;;;;;;;14.39;100.00;101720.72;5004394;28;20057;-71
2023/07/18 05:59:51;;;;;;;13.60;4.40;;;;;;;14.45;100.00;101711.44;5007738;28;20449;-72
2023/07/18 06:02:19;;;;;;;12.77;4.15;;;;;;;14.53;100.00;101712.94;5008014;28;20664;-70
2023/07/18 06:04:47;;;;;;;15.75;4.80;;;;;;;14.61;100.00;101713.63;5008098;28;20084;-71
2023/07/18 06:07:15;;;;;;;16.63;5.40;;;;;;;14.62;100.00;101712.44;5000635;28;20050;-69
2023/07/18 06:09:42;;;;;;;15.57;4.30;;;;;;;14.67;100.00;101712.75;5007120;28;20100;-74
2023/07/18 06:12:09;;;;;;;11.00;4.45;;;;;;;14.73;100.00;101713.06;5005874;28;20177;-73
2023/07/18 06:14:35;;;;;;;9.40;3.20;;;;;;;14.81;100.00;101717.34;5005898;28;20136;-73
2023/07/18 06:17:03;;;;;;;14.15;4.50;;;;;;;14.87;100.00;101718.44;5007843;28;20697;-74
2023/07/18 06:19:29;;;;;;;10.43;3.67;;;;;;;14.98;100.00;101721.88;4989013;28;20089;-74
2023/07/18 06:21:57;;;;;;;12.23;4.45;;;;;;;15.06;100.00;101720.56;4986848;28;20050;-73
2023/07/18 06:24:24;;;;;;;12.07;4.50;;;;;;;15.23;100.00;101722.28;4989191;28;20045;-74
2023/07/18 06:26:51;;;;;;;13.32;4.18;;;;;;;15.31;100.00;101725.72;5005840;28;20830;-74
2023/07/18 06:29:19;;;;;;;11.75;4.32;;;;;;;15.31;100.00;101709.72;5006386;28;20077;-73
2023/07/18 06:31:47;;;;;;;5.75;1.85;;;;;;;15.40;100.00;101726.03;5006559;28;20136;-74
2023/07/18 06:34:16;;;;;;;9.77;3.35;;;;;;;15.46;100.00;101713.09;5008103;28;20054;-74
2023/07/18 06:36:44;;;;;;;10.15;4.18;;;;;;;15.48;100.00;101717.06;5007721;28;20046;-74
2023/07/18 06:39:11;;;;;;;2.22;1.70;;;;;;;15.46;100.00;101710.31;5010064;28;20701;-74
2023/07/18 06:41:38;;;;;;;17.92;5.60;;;;;;;15.67;100.00;101712.72;5009799;28;20494;-74
2023/07/18 06:44:05;;;;;;;13.15;3.92;;;;;;;15.79;100.00;101710.06;5011974;28;20073;-74
2023/07/18 06:46:32;;;;;;;14.27;4.45;;;;;;;15.81;100.00;101707.66;5002581;28;20058;-75
2023/07/18 06:48:58;;;;;;;14.35;3.70;;;;;;;15.82;100.00;101712.03;5011611;28;20054;-74
2023/07/18 06:51:25;;;;;;;12.48;4.15;;;;;;;15.88;100.00;101706.69;4987630;28;20639;-74
2023/07/18 06:53:52;;;;;;;13.70;4.07;;;;;;;15.88;100.00;101704.69;5007738;28;20069;-74
2023/07/18 06:56:18;;;;;;;3.13;1.17;;;;;;;15.96;100.00;101699.72;5008924;28;20061;-75
2023/07/18 06:58:45;;;;;;;14.02;3.40;;;;;;;16.02;100.00;101703.63;5004563;28;20089;-72
2023/07/18 07:01:12;;;;;;;14.90;4.47;;;;;;;16.23;100.00;101692.75;5006371;28;20050;-75
2023/07/18 07:03:38;;;;;;;10.80;3.63;;;;;;;16.28;100.00;101700.69;5010652;28;20084;-75
2023/07/18 07:06:10;;;;;;;11.10;3.00;;;;;;;16.26;100.00;101691.91;5006345;28;20065;-73
2023/07/18 07:08:37;;;;;;;8.20;3.33;;;;;;;16.48;100.00;101693.00;5009445;28;20050;-74
2023/07/18 07:11:05;;;;;;;12.35;4.00;;;;;;;16.57;100.00;101698.84;5010858;28;20553;-73
2023/07/18 07:13:33;;;;;;;8.95;3.50;;;;;;;16.59;100.00;101687.97;4987307;28;20053;-73
2023/07/18 07:16:00;;;;;;;6.97;2.58;;;;;;;16.68;100.00;101687.38;5007913;28;20064;-75
2023/07/18 07:18:27;;;;;;;7.03;2.42;;;;;;;16.71;100.00;101683.69;5010405;28;20580;-73
2023/07/18 07:20:53;;;;;;;15.93;3.50;;;;;;;16.75;100.00;101684.41;5003865;28;20127;-73
2023/07/18 07:23:20;;;;;;;7.95;2.50;;;;;;;16.86;100.00;101685.75;5007768;28;20053;-70
2023/07/18 07:25:47;;;;;;;12.32;3.58;;;;;;;16.91;100.00;101681.63;4999257;28;20085;-70
2023/07/18 07:28:14;;;;;;;8.93;3.10;;;;;;;16.98;100.00;101681.44;4999845;28;20049;-71
2023/07/18 07:30:40;;;;;;;10.38;3.17;;;;;;;17.04;100.00;101682.47;5009736;28;20196;-73
2023/07/18 07:33:07;;;;;;;8.98;2.58;;;;;;;17.07;100.00;101675.97;5007482;28;20065;-70
2023/07/18 07:35:34;;;;;;;8.13;3.13;;;;;;;17.26;100.00;101669.50;5005785;28;20049;-69
2023/07/18 07:38:00;;;;;;;8.15;2.95;;;;;;;17.39;100.00;101676.00;5007478;28;20081;-71
2023/07/18 07:40:27;;;;;;;10.48;1.85;;;;;;;17.39;100.00;101671.16;5007421;28;20046;-72
2023/07/18 07:42:53;;;;;;;5.35;1.77;;;;;;;17.38;100.00;101670.81;5001606;28;20047;-70
2023/07/18 07:45:21;;;;;;;4.88;1.55;;;;;;;17.45;100.00;101667.81;5005308;28;20128;-68
2023/07/18 07:47:47;;;;;;;6.93;2.00;;;;;;;17.49;100.00;101671.31;5002311;28;20080;-72
2023/07/18 07:50:14;;;;;;;6.07;1.73;;;;;;;17.66;100.00;101670.06;5003095;28;20057;-68
2023/07/18 07:52:42;;;;;;;7.78;2.38;;;;;;;17.70;100.00;101671.53;5002585;28;20053;-72
2023/07/18 07:55:12;;;;;;;9.50;2.90;;;;;;;17.82;100.00;101662.34;5003885;28;20046;-71
2023/07/18 07:57:39;;;;;;;12.10;2.67;;;;;;;17.83;100.00;101666.75;4999941;28;20092;-70
2023/07/18 08:00:07;;;;;;;8.63;2.70;;;;;;;17.95;100.00;101666.03;5008982;28;20086;-71
2023/07/18 08:02:34;;;;;;;4.00;1.70;;;;;;;17.84;100.00;101657.06;5006746;28;20049;-71
2023/07/18 08:05:01;;;;;;;10.15;2.47;;;;;;;17.95;100.00;101654.00;5007781;28;20663;-70
2023/07/18 08:07:27;;;;;;;5.68;1.83;;;;;;;18.10;100.00;101663.59;5001218;28;20050;-71
2023/07/18 08:09:54;;;;;;;8.68;1.95;;;;;;;18.13;100.00;101654.25;5008536;28;20046;-71
2023/07/18 08:12:22;;;;;;;7.00;2.70;;;;;;;18.21;100.00;101659.22;5002595;28;20129;-71
2023/07/18 08:14:48;;;;;;;7.38;2.10;;;;;;;18.31;100.00;101646.84;4981469;28;20062;-72
2023/07/18 08:17:16;;;;;;;4.63;1.02;;;;;;;18.32;100.00;101650.44;5006823;28;20140;-72
2023/07/18 08:19:43;;;;;;;5.90;1.92;;;;;;;18.33;100.00;101649.22;5006063;28;20506;-72
2023/07/18 08:22:10;;;;;;;5.63;1.48;;;;;;;18.40;100.00;101646.97;5007925;28;20053;-73
2023/07/18 08:24:37;;;;;;;4.25;1.95;;;;;;;18.56;100.00;101651.72;5009134;28;20053;-70
2023/07/18 08:27:04;;;;;;;8.43;2.03;;;;;;;18.60;100.00;101643.94;5007329;28;20049;-72
2023/07/18 08:29:33;;;;;;;9.45;1.90;;;;;;;18.78;100.00;101644.97;5005575;28;20544;-70
2023/07/18 08:32:00;;;;;;;5.53;1.58;;;;;;;18.93;100.00;101653.72;5007080;28;20050;-72
2023/07/18 08:34:27;;;;;;;6.88;2.00;;;;;;;18.92;100.00;101649.34;5006808;28;20132;-70
2023/07/18 08:36:53;;;;;;;2.65;0.90;;;;;;;18.83;100.00;101640.78;5009040;28;20108;-71
2023/07/18 08:39:20;;;;;;;5.75;1.55;;;;;;;18.82;100.00;101647.66;5007382;28;20176;-71
2023/07/18 08:41:51;;;;;;;5.28;1.30;;;;;;;18.99;100.00;101638.63;5009252;28;20100;-72
2023/07/18 08:44:20;;;;;;;4.45;1.38;;;;;;;19.15;100.00;101644.13;4991980;28;20045;-69
2023/07/18 08:46:47;;;;;;;8.88;1.77;;;;;;;19.27;100.00;101631.22;4992008;28;20046;-71
2023/07/18 08:49:16;;;;;;;7.90;1.77;;;;;;;19.21;100.00;101633.84;5008836;28;20056;-70
2023/07/18 08:51:44;;;;;;;1.95;1.00;;;;;;;19.19;100.00;101644.00;4989079;28;20052;-72
2023/07/18 08:54:12;;;;;;;4.95;1.10;;;;;;;19.27;100.00;101634.03;5005633;28;20057;-72
2023/07/18 08:56:41;;;;;;;3.00;1.10;;;;;;;19.30;100.00;101636.75;5007821;28;20115;-70
2023/07/18 08:59:08;;;;;;;3.42;1.38;;;;;;;19.19;100.00;101629.91;5009175;28;20077;-71
2023/07/18 09:01:35;;;;;;;3.30;0.52;;;;;;;19.28;100.00;101624.38;5008509;28;20049;-71
2023/07/18 09:04:02;;;;;;;6.63;1.60;;;;;;;19.48;100.00;101613.56;4998498;28;20057;-72
2023/07/18 09:06:28;;;;;;;7.18;1.48;;;;;;;19.40;100.00;101609.41;5001918;28;20632;-71
2023/07/18 09:08:55;;;;;;;5.40;1.13;;;;;;;19.47;100.00;101612.78;5007212;28;20081;-71
2023/07/18 09:11:22;;;;;;;6.35;1.70;;;;;;;19.69;100.00;101607.94;5008689;28;20054;-71
2023/07/18 09:13:49;;;;;;;7.13;1.70;;;;;;;19.84;100.00;101602.56;5009036;28;20140;-71
2023/07/18 09:16:22;;;;;;;1.83;0.85;;;;;;;20.01;100.00;101601.13;5006157;28;20112;-73
2023/07/18 09:18:53;;;;;;;2.58;1.02;;;;;;;19.79;100.00;101594.72;5002848;28;20112;-72
2023/07/18 09:21:21;;;;;;;6.97;1.42;;;;;;;20.05;100.00;101601.75;5008073;28;20580;-72
2023/07/18 09:23:49;;;;;;;4.47;1.25;;;;;;;20.21;100.00;101590.25;5005626;28;20077;-70
2023/07/18 09:26:21;;;;;;;1.35;0.73;;;;;;;20.11;100.00;101596.31;5006790;28;20053;-72
2023/07/18 09:28:48;;;;;;;3.78;1.17;;;;;;;20.13;100.00;101594.59;5008643;28;20140;-73
2023/07/18 09:31:25;;;;;;;3.25;1.58;;;;;;;20.43;100.00;101576.91;5008510;28;20548;-73
2023/07/18 09:33:53;;;;;;;5.68;1.02;;;;;;;20.32;100.00;101576.50;5004250;28;20491;-72
2023/07/18 09:36:19;;;;;;;6.28;1.63;;;;;;;20.52;100.00;101587.44;5008510;28;20132;-72
2023/07/18 09:38:47;;;;;;;6.63;1.42;;;;;;;20.52;100.00;101585.38;5005723;28;20104;-71
2023/07/18 09:41:18;;;;;;;0.95;0.70;;;;;;;20.36;100.00;101571.53;5003020;28;20041;-72
2023/07/18 09:43:48;;;;;;;6.40;1.50;;;;;;;20.75;100.00;101576.34;5006699;28;20520;-71
2023/07/18 09:46:16;;;;;;;3.97;1.50;;;;;;;20.87;100.00;101577.47;5007561;28;20069;-72
2023/07/18 09:48:44;;;;;;;6.43;1.63;;;;;;;20.95;100.00;101573.91;5005809;28;20042;-72
2023/07/18 09:51:14;;;;;;;7.05;1.70;;;;;;;20.95;100.00;101575.94;5005231;28;20046;-71
2023/07/18 09:53:46;;;;;;;4.85;2.15;;;;;;;20.96;100.00;101578.31;4997621;28;20057;-73
2023/07/18 09:56:17;;;;;;;2.25;1.15;;;;;;;20.73;100.00;101576.06;5000346;28;20047;-72
2023/07/18 09:58:48;;;;;;;3.85;1.17;;;;;;;20.75;100.00;101584.03;5001768;28;20407;-71
2023/07/18 10:01:19;;;;;;;2.40;0.95;;;;;;;20.68;100.00;101585.13;5007886;28;20046;-73
2023/07/18 10:03:52;;;;;;;9.13;1.75;;;;;;;20.85;100.00;101579.97;5006330;28;20046;-72
2023/07/18 10:06:20;;;;;;;5.38;1.45;;;;;;;21.00;100.00;101581.00;5000521;28;20132;-72
2023/07/18 10:08:48;;;;;;;2.78;1.05;;;;;;;21.01;100.00;101589.00;5011646;28;20046;-71
2023/07/18 10:11:14;;;;;;;6.07;1.02;;;;;;;21.12;100.00;101589.31;5010853;28;20050;-72
2023/07/18 10:13:42;;;;;;;6.85;1.55;;;;;;;21.22;100.00;101584.44;5004779;28;20634;-73
2023/07/18 10:16:11;;;;;;;4.50;1.55;;;;;;;21.33;100.00;101584.78;5003508;28;20049;-69
2023/07/18 10:18:51;;;;;;;6.75;1.50;;;;;;;21.50;100.00;101580.38;5004858;28;20617;-71
2023/07/18 10:21:29;;;;;;;5.30;1.48;;;;;;;21.36;100.00;101569.69;5003970;28;20446;-72
2023/07/18 10:23:56;;;;;;;6.03;1.98;;;;;;;21.45;100.00;101570.47;5009307;28;20120;-72
2023/07/18 10:26:33;;;;;;;7.72;2.28;;;;;;;21.43;100.00;101569.41;4990834;28;20069;-69
2023/07/18 10:29:02;;;;;;;0.77;0.57;;;;;;;21.12;100.00;101563.88;5007642;28;20050;-71
2023/07/18 10:31:36;;;;;;;5.45;1.92;;;;;;;21.23;100.00;101560.59;4997193;28;20041;-70
2023/07/18 10:34:07;;;;;;;9.98;2.28;;;;;;;21.34;100.00;101561.69;5011936;28;20046;-71
2023/07/18 10:36:35;;;;;;;5.78;1.60;;;;;;;21.35;100.00;101560.44;5008933;28;20050;-71
2023/07/18 10:39:15;;;;;;;1.92;0.98;;;;;;;21.11;100.00;101561.50;4996760;28;20764;-72
2023/07/18 10:41:44;;;;;;;4.53;1.10;;;;;;;21.17;100.00;101562.47;4998359;28;20037;-73
2023/07/18 10:44:13;;;;;;;6.70;2.30;;;;;;;21.24;100.00;101557.28;5002561;28;20054;-72
2023/07/18 10:46:42;;;;;;;8.38;2.25;;;;;;;21.25;100.00;101550.38;5007799;28;20083;-70
2023/07/18 10:49:09;;;;;;;7.60;1.75;;;;;;;20.99;100.00;101551.94;5003254;28;20076;-71
2023/07/18 10:51:36;;;;;;;6.95;2.17;;;;;;;21.19;100.00;101540.94;5003618;28;20073;-71
2023/07/18 10:54:02;;;;;;;7.25;2.42;;;;;;;21.28;100.00;101534.50;5003964;28;20054;-74
2023/07/18 10:56:29;;;;;;;11.23;2.30;;;;;;;21.14;100.00;101541.59;5004673;28;20141;-71
2023/07/18 10:58:55;;;;;;;9.73;2.40;;;;;;;21.06;100.00;101529.00;5005292;28;20060;-70
2023/07/18 11:01:26;;;;;;;9.30;2.70;;;;;;;20.88;100.00;101523.31;5006556;28;20394;-71
2023/07/18 11:03:53;;;;;;;8.40;2.33;;;;;;;21.13;100.00;101517.38;5007103;28;20069;-71
2023/07/18 11:06:22;;;;;;;9.88;2.63;;;;;;;21.29;100.00;101514.22;5002317;28;20533;-72
2023/07/18 11:08:49;;;;;;;6.38;2.10;;;;;;;21.46;100.00;101512.63;5005396;28;20060;-72
2023/07/18 11:11:18;;;;;;;8.60;2.38;;;;;;;21.42;100.00;101509.19;5006548;28;20050;-71
2023/07/18 11:13:45;;;;;;;7.88;1.75;;;;;;;21.23;100.00;101510.47;4991446;28;20077;-71